createdAt,value
2022-10-08T00:01:57.953Z,3.70
2022-10-08T00:04:30.487Z,3.80
2022-10-08T00:09:33.102Z,3.40
2022-10-08T00:12:05.265Z,4.30
2022-10-08T00:14:38.596Z,3.80
2022-10-08T00:17:10.658Z,4.20
2022-10-08T00:19:43.237Z,4.30
2022-10-08T00:24:46.622Z,4.60
2022-10-08T00:27:18.681Z,4.30
2022-10-08T00:29:50.727Z,3.90
2022-10-08T00:32:22.880Z,4.30
2022-10-08T00:34:55.045Z,4.10
2022-10-08T00:37:27.151Z,4.20
2022-10-08T00:39:59.214Z,4.30
2022-10-08T00:42:31.293Z,5.00
2022-10-08T00:45:03.532Z,4.20
2022-10-08T00:47:43.148Z,4.80
2022-10-08T00:50:19.242Z,4.40
2022-10-08T00:52:56.117Z,4.30
2022-10-08T00:55:29.325Z,4.80
2022-10-08T00:58:04.294Z,5.10
2022-10-08T01:00:36.541Z,4.70
2022-10-08T01:03:09.000Z,4.30
2022-10-08T01:05:48.980Z,4.80
2022-10-08T01:08:26.635Z,4.90
2022-10-08T01:11:04.190Z,5.10
2022-10-08T01:13:42.767Z,4.30
2022-10-08T01:16:21.930Z,4.40
2022-10-08T01:18:59.078Z,4.20
2022-10-08T01:21:39.564Z,4.10
2022-10-08T01:24:49.952Z,4.00
2022-10-08T01:27:27.520Z,3.40
2022-10-08T01:30:01.393Z,4.20
2022-10-08T01:32:39.002Z,4.30
2022-10-08T01:35:14.483Z,4.80
2022-10-08T01:37:46.922Z,4.30
2022-10-08T01:42:52.628Z,4.60
2022-10-08T01:45:27.833Z,4.50
2022-10-08T01:48:01.182Z,4.40
2022-10-08T01:50:37.012Z,4.30
2022-10-08T01:53:12.100Z,4.50
2022-10-08T01:55:46.509Z,4.30
2022-10-08T01:58:22.164Z,4.70
2022-10-08T02:00:56.324Z,4.10
2022-10-08T02:03:28.489Z,4.30
2022-10-08T02:06:01.563Z,4.30
2022-10-08T02:08:33.854Z,4.20
2022-10-08T02:11:06.017Z,4.40
2022-10-08T02:13:38.062Z,4.80
2022-10-08T02:16:14.913Z,4.50
2022-10-08T02:18:52.477Z,4.50
2022-10-08T02:21:27.655Z,4.70
2022-10-08T02:24:05.478Z,4.80
2022-10-08T02:26:40.716Z,4.60
2022-10-08T02:29:14.906Z,5.40
2022-10-08T02:31:51.017Z,5.00
2022-10-08T02:34:27.756Z,4.40
2022-10-08T02:37:04.927Z,5.00
2022-10-08T02:39:38.602Z,5.10
2022-10-08T02:42:12.741Z,4.70
2022-10-08T02:44:47.481Z,5.00
2022-10-08T02:47:22.165Z,5.20
2022-10-08T02:49:57.418Z,4.30
2022-10-08T02:52:33.092Z,4.80
2022-10-08T02:55:08.182Z,5.60
2022-10-08T02:57:44.211Z,4.90
2022-10-08T03:00:16.973Z,4.90
2022-10-08T03:02:57.010Z,5.20
2022-10-08T03:05:30.039Z,5.70
2022-10-08T03:08:04.765Z,4.70
2022-10-08T03:10:39.645Z,4.50
2022-10-08T03:13:12.328Z,4.90
2022-10-08T03:15:45.438Z,5.00
2022-10-08T03:18:17.543Z,5.30
2022-10-08T03:20:52.437Z,5.80
2022-10-08T03:23:24.707Z,4.50
2022-10-08T03:25:56.794Z,5.30
2022-10-08T03:28:29.088Z,5.70
2022-10-08T03:31:04.941Z,5.30
2022-10-08T03:33:37.099Z,5.50
2022-10-08T03:36:09.681Z,5.20
2022-10-08T03:38:41.806Z,5.90
2022-10-08T03:41:13.905Z,5.40
2022-10-08T03:43:46.171Z,5.40
2022-10-08T03:46:18.332Z,5.30
2022-10-08T03:48:52.281Z,5.00
2022-10-08T03:51:24.837Z,5.70
2022-10-08T03:56:27.589Z,5.20
2022-10-08T03:59:00.906Z,5.50
2022-10-08T04:01:33.121Z,4.50
2022-10-08T04:04:05.443Z,6.00
2022-10-08T04:06:37.517Z,6.10
2022-10-08T04:09:10.099Z,5.50
2022-10-08T04:14:12.682Z,6.00
2022-10-08T04:16:45.061Z,6.90
2022-10-08T04:19:17.905Z,5.70
2022-10-08T04:21:50.060Z,5.80
2022-10-08T04:24:22.200Z,6.10
2022-10-08T04:26:54.272Z,5.90
2022-10-08T04:29:26.493Z,5.40
2022-10-08T04:31:58.717Z,6.30
2022-10-08T04:34:30.840Z,6.10
2022-10-08T04:37:02.846Z,5.70
2022-10-08T04:39:34.927Z,6.30
2022-10-08T04:42:07.269Z,6.50
2022-10-08T04:44:40.585Z,6.30
2022-10-08T04:47:12.766Z,6.20
2022-10-08T04:49:45.007Z,6.20
2022-10-08T04:52:19.009Z,6.20
2022-10-08T04:54:51.473Z,6.80
2022-10-08T04:57:23.733Z,6.20
2022-10-08T05:00:17.501Z,6.60
2022-10-08T05:02:47.963Z,6.60
2022-10-08T05:05:20.309Z,6.10
2022-10-08T05:07:54.449Z,7.00
2022-10-08T05:10:26.664Z,6.90
2022-10-08T05:12:59.144Z,6.60
2022-10-08T05:15:32.274Z,6.80
2022-10-08T05:18:04.673Z,6.50
2022-10-08T05:20:38.391Z,6.90
2022-10-08T05:23:10.581Z,7.20
2022-10-08T05:25:42.969Z,6.90
2022-10-08T05:28:15.168Z,6.90
2022-10-08T05:30:47.418Z,6.90
2022-10-08T05:33:19.624Z,6.60
2022-10-08T05:35:51.827Z,7.00
2022-10-08T05:38:23.947Z,7.40
2022-10-08T05:40:56.000Z,7.30
2022-10-08T05:43:28.155Z,7.20
2022-10-08T05:46:00.229Z,7.70
2022-10-08T05:48:32.411Z,7.20
2022-10-08T05:53:40.211Z,7.00
2022-10-08T05:56:13.737Z,7.20
2022-10-08T05:58:46.306Z,6.90
2022-10-08T06:03:51.850Z,7.10
2022-10-08T06:06:24.266Z,6.50
2022-10-08T06:08:58.778Z,6.60
2022-10-08T06:11:32.492Z,5.60
2022-10-08T06:14:06.136Z,6.10
2022-10-08T06:16:38.626Z,6.00
2022-10-08T06:19:11.387Z,5.80
2022-10-08T06:24:18.547Z,4.60
2022-10-08T06:26:50.861Z,4.60
2022-10-08T06:29:22.886Z,4.30
2022-10-08T06:31:55.692Z,4.30
2022-10-08T06:34:27.887Z,4.30
2022-10-08T06:36:59.970Z,4.50
2022-10-08T06:39:32.044Z,4.10
2022-10-08T06:42:04.227Z,4.00
2022-10-08T06:44:36.481Z,4.80
2022-10-08T06:47:08.723Z,4.10
2022-10-08T06:49:41.137Z,4.20
2022-10-08T06:54:44.644Z,4.10
2022-10-08T06:57:16.834Z,4.30
2022-10-08T06:59:48.934Z,4.10
2022-10-08T07:02:21.065Z,3.60
2022-10-08T07:04:53.290Z,3.90
2022-10-08T07:07:25.456Z,4.50
2022-10-08T07:09:57.757Z,5.10
2022-10-08T07:12:29.996Z,4.80
2022-10-08T07:15:02.110Z,5.20
2022-10-08T07:17:34.790Z,5.00
2022-10-08T07:22:37.766Z,5.50
2022-10-08T07:25:10.716Z,5.30
2022-10-08T07:27:45.037Z,5.20
2022-10-08T07:30:17.545Z,4.80
2022-10-08T07:32:49.859Z,4.50
2022-10-08T07:35:22.362Z,5.40
2022-10-08T07:37:54.429Z,4.30
2022-10-08T07:40:26.490Z,4.00
2022-10-08T07:42:58.585Z,4.30
2022-10-08T07:45:30.705Z,4.60
2022-10-08T07:48:02.868Z,3.80
2022-10-08T07:50:35.061Z,3.90
2022-10-08T07:53:08.091Z,3.80
2022-10-08T07:55:40.393Z,4.20
2022-10-08T07:58:12.489Z,4.40
2022-10-08T08:00:44.761Z,4.20
2022-10-08T08:03:19.037Z,5.10
2022-10-08T08:05:52.083Z,4.10
2022-10-08T08:08:25.505Z,4.80
2022-10-08T08:11:02.853Z,4.10
2022-10-08T08:13:37.759Z,4.00
2022-10-08T08:16:13.546Z,4.20
2022-10-08T08:18:47.586Z,4.00
2022-10-08T08:21:23.225Z,4.30
2022-10-08T08:23:57.613Z,3.50
2022-10-08T08:26:33.268Z,4.00
2022-10-08T08:29:09.585Z,3.90
2022-10-08T08:31:43.963Z,8.20
2022-10-08T08:34:19.556Z,4.80
2022-10-08T08:36:55.061Z,5.70
2022-10-08T08:39:30.598Z,8.00
2022-10-08T08:42:12.017Z,6.50
2022-10-08T08:44:46.609Z,4.90
2022-10-08T08:47:23.742Z,4.80
2022-10-08T08:49:59.596Z,11.90
2022-10-08T08:52:35.235Z,7.20
2022-10-08T08:55:13.609Z,6.80
2022-10-08T08:57:53.233Z,10.20
2022-10-08T09:00:31.626Z,7.40
2022-10-08T09:03:06.143Z,5.90
2022-10-08T09:05:43.631Z,4.30
2022-10-08T09:08:18.856Z,5.60
2022-10-08T09:17:23.017Z,5.20
2022-10-08T09:19:55.360Z,7.00
2022-10-08T09:25:01.756Z,5.90
2022-10-08T09:27:51.404Z,5.50
2022-10-08T09:30:33.366Z,6.00
2022-10-08T09:33:21.658Z,5.80
2022-10-08T09:35:55.255Z,5.00
2022-10-08T09:38:29.685Z,4.60
2022-10-08T09:41:07.367Z,4.70
2022-10-08T09:43:39.782Z,5.00
2022-10-08T09:51:19.599Z,5.00
2022-10-08T09:53:53.985Z,4.10
2022-10-08T09:56:28.273Z,3.80
2022-10-08T09:59:03.337Z,3.90
2022-10-08T10:01:36.922Z,3.30
2022-10-08T10:04:11.154Z,3.20
2022-10-08T10:06:46.213Z,2.60
2022-10-08T10:09:29.206Z,2.90
2022-10-08T10:12:05.202Z,2.90
2022-10-08T10:14:44.206Z,2.90
2022-10-08T10:17:22.189Z,3.20
2022-10-08T10:19:56.988Z,2.80
2022-10-08T10:22:33.803Z,2.70
2022-10-08T10:25:10.237Z,2.70
2022-10-08T10:27:45.745Z,2.70
2022-10-08T10:30:22.561Z,3.30
2022-10-08T10:32:57.835Z,2.60
2022-10-08T10:35:32.277Z,2.70
2022-10-08T10:38:09.217Z,2.30
2022-10-08T10:40:44.107Z,2.10
2022-10-08T10:43:34.717Z,2.50
2022-10-08T10:46:20.226Z,2.30
2022-10-08T10:48:52.778Z,2.10
2022-10-08T10:51:36.917Z,1.80
2022-10-08T10:54:25.782Z,2.00
2022-10-08T10:57:02.329Z,2.20
2022-10-08T10:59:45.007Z,1.90
2022-10-08T11:02:24.844Z,1.70
2022-10-08T11:05:05.154Z,1.80
2022-10-08T11:07:50.890Z,2.10
2022-10-08T11:10:33.316Z,2.10
2022-10-08T11:13:12.491Z,2.20
2022-10-08T11:15:48.215Z,2.20
2022-10-08T11:18:26.282Z,2.10
2022-10-08T11:21:06.337Z,1.90
2022-10-08T11:23:57.446Z,2.00
2022-10-08T11:26:32.856Z,1.90
2022-10-08T11:29:13.276Z,1.80
2022-10-08T11:31:46.707Z,2.10
2022-10-08T11:34:25.225Z,1.70
2022-10-08T11:37:05.212Z,2.20
2022-10-08T11:39:46.188Z,1.80
2022-10-08T11:42:24.316Z,2.00
2022-10-08T11:44:56.528Z,2.10
2022-10-08T11:47:51.911Z,1.70
2022-10-08T11:50:35.465Z,1.50
2022-10-08T11:53:21.443Z,1.60
2022-10-08T11:55:55.343Z,2.10
2022-10-08T11:58:31.003Z,1.60
2022-10-08T12:01:06.872Z,1.90
2022-10-08T12:03:41.332Z,1.60
2022-10-08T12:06:25.244Z,1.80
2022-10-08T12:08:59.097Z,1.90
2022-10-08T12:11:49.662Z,1.40
2022-10-08T12:14:40.037Z,2.30
2022-10-08T12:17:13.367Z,2.00
2022-10-08T12:20:05.264Z,2.00
2022-10-08T12:23:00.377Z,1.80
2022-10-08T12:25:38.126Z,1.70
2022-10-08T12:28:44.809Z,1.80
2022-10-08T12:31:23.577Z,1.90
2022-10-08T12:34:00.764Z,1.80
2022-10-08T12:36:43.085Z,2.00
2022-10-08T12:39:22.002Z,1.90
2022-10-08T12:42:01.625Z,2.00
2022-10-08T12:44:42.102Z,1.60
2022-10-08T12:47:23.847Z,2.10
2022-10-08T12:50:00.103Z,1.90
2022-10-08T12:52:36.095Z,2.40
2022-10-08T12:55:14.821Z,1.90
2022-10-08T12:57:48.186Z,1.90
2022-10-08T13:00:25.522Z,2.10
2022-10-08T13:03:06.217Z,2.40
2022-10-08T13:05:39.908Z,1.70
2022-10-08T13:08:33.705Z,1.80
2022-10-08T13:11:09.823Z,2.10
2022-10-08T13:13:49.200Z,2.00
2022-10-08T13:16:23.359Z,2.10
2022-10-08T13:18:57.647Z,1.90
2022-10-08T13:21:41.119Z,1.80
2022-10-08T13:24:34.833Z,1.90
2022-10-08T13:27:08.074Z,2.00
2022-10-08T13:29:40.569Z,2.00
2022-10-08T13:32:21.755Z,1.70
2022-10-08T13:34:55.362Z,1.90
2022-10-08T13:37:33.931Z,1.70
2022-10-08T13:40:19.361Z,1.80
2022-10-08T13:42:53.814Z,1.90
2022-10-08T13:45:26.886Z,2.10
2022-10-08T13:47:59.425Z,2.00
2022-10-08T13:50:31.515Z,1.80
2022-10-08T13:53:03.891Z,2.00
2022-10-08T13:55:37.288Z,2.00
2022-10-08T13:58:11.622Z,1.90
2022-10-08T14:00:44.750Z,2.00
2022-10-08T14:03:17.017Z,1.70
2022-10-08T14:05:50.105Z,1.70
2022-10-08T14:08:25.389Z,2.00
2022-10-08T14:10:58.765Z,1.80
2022-10-08T14:13:31.056Z,2.30
2022-10-08T14:16:03.370Z,2.20
2022-10-08T14:18:35.531Z,2.00
2022-10-08T14:21:08.158Z,2.10
2022-10-08T14:23:40.312Z,2.10
2022-10-08T14:26:13.791Z,1.80
2022-10-08T14:28:46.051Z,1.80
2022-10-08T14:31:18.300Z,1.90
2022-10-08T14:33:50.442Z,2.40
2022-10-08T14:36:24.506Z,2.30
2022-10-08T14:38:56.550Z,2.00
2022-10-08T14:43:59.165Z,2.00
2022-10-08T14:46:31.225Z,2.10
2022-10-08T14:51:38.853Z,2.00
2022-10-08T14:54:12.166Z,2.20
2022-10-08T14:56:44.644Z,2.10
2022-10-08T14:59:16.854Z,1.90
2022-10-08T15:04:19.822Z,3.00
2022-10-08T15:06:51.936Z,2.60
2022-10-08T15:09:24.050Z,3.00
2022-10-08T15:14:26.682Z,3.20
2022-10-08T15:19:29.314Z,3.40
2022-10-08T15:24:32.126Z,4.40
2022-10-08T15:29:35.101Z,4.00
2022-10-08T15:34:38.165Z,4.90
2022-10-08T15:39:41.262Z,4.60
2022-10-08T15:44:46.776Z,4.80
2022-10-08T15:47:18.939Z,6.40
2022-10-08T15:52:22.714Z,7.10
2022-10-08T15:54:54.908Z,8.30
2022-10-08T15:57:27.021Z,7.20
2022-10-08T16:02:30.775Z,7.90
2022-10-08T16:05:02.997Z,6.60
2022-10-08T16:10:06.244Z,7.40
2022-10-08T16:12:38.457Z,7.00
2022-10-08T16:15:12.374Z,6.80
2022-10-08T16:17:44.490Z,7.40
2022-10-08T16:20:16.747Z,7.10
2022-10-08T16:25:19.820Z,8.30
2022-10-08T16:27:52.066Z,7.30
2022-10-08T16:30:24.170Z,7.00
2022-10-08T16:32:56.576Z,7.70
2022-10-08T16:37:59.541Z,8.50
2022-10-08T16:43:02.143Z,7.20
2022-10-08T16:45:38.186Z,7.90
2022-10-08T16:48:10.471Z,6.50
2022-10-08T16:50:43.325Z,7.00
2022-10-08T16:53:15.433Z,8.60
2022-10-08T16:55:47.557Z,9.20
2022-10-08T16:58:19.737Z,8.60
2022-10-08T17:00:51.879Z,8.70
2022-10-08T17:05:54.914Z,7.60
2022-10-08T17:08:27.028Z,8.80
2022-10-08T17:10:59.229Z,7.70
2022-10-08T17:13:31.403Z,9.10
2022-10-08T17:16:07.443Z,8.70
2022-10-08T17:18:40.057Z,9.40
2022-10-08T17:21:12.379Z,9.00
2022-10-08T17:23:44.689Z,8.10
2022-10-08T17:26:18.947Z,7.10
2022-10-08T17:28:52.288Z,8.70
2022-10-08T17:31:25.709Z,8.90
2022-10-08T17:33:57.969Z,7.50
2022-10-08T17:39:03.134Z,6.50
2022-10-08T17:41:36.697Z,6.70
2022-10-08T17:44:10.486Z,8.00
2022-10-08T17:46:45.737Z,7.80
2022-10-08T17:49:19.898Z,8.00
2022-10-08T17:51:52.067Z,7.60
2022-10-08T17:54:24.272Z,7.50
2022-10-08T17:56:56.425Z,8.50
2022-10-08T17:59:28.528Z,10.20
2022-10-08T18:02:00.774Z,9.20
2022-10-08T18:04:33.084Z,10.70
2022-10-08T18:07:05.191Z,9.40
2022-10-08T18:09:37.751Z,10.90
2022-10-08T18:12:10.063Z,10.00
2022-10-08T18:17:12.714Z,11.20
2022-10-08T18:19:45.365Z,12.00
2022-10-08T18:22:17.669Z,13.80
2022-10-08T18:24:49.822Z,13.40
2022-10-08T18:27:22.101Z,14.50
2022-10-08T18:29:54.224Z,14.80
2022-10-08T18:32:26.530Z,13.70
2022-10-08T18:34:58.653Z,13.40
2022-10-08T18:37:30.920Z,12.30
2022-10-08T18:40:03.534Z,13.30
2022-10-08T18:42:35.792Z,12.90
2022-10-08T18:45:09.622Z,14.90
2022-10-08T18:47:41.810Z,14.80
2022-10-08T18:50:14.112Z,14.10
2022-10-08T18:52:46.435Z,14.40
2022-10-08T18:55:18.984Z,13.50
2022-10-08T18:57:51.093Z,15.40
2022-10-08T19:00:23.278Z,14.40
2022-10-08T19:02:57.347Z,12.80
2022-10-08T19:05:29.693Z,14.30
2022-10-08T19:08:01.924Z,15.00
2022-10-08T19:10:34.187Z,14.90
2022-10-08T19:13:06.365Z,15.60
2022-10-08T19:15:39.753Z,16.80
2022-10-08T19:18:12.065Z,17.90
2022-10-08T19:20:44.340Z,18.50
2022-10-08T19:23:16.653Z,16.50
2022-10-08T19:25:48.924Z,17.20
2022-10-08T19:28:21.266Z,16.00
2022-10-08T19:30:53.605Z,16.70
2022-10-08T19:33:25.801Z,18.10
2022-10-08T19:36:03.111Z,20.70
2022-10-08T19:38:35.624Z,20.00
2022-10-08T19:43:44.488Z,21.80
2022-10-08T19:46:16.674Z,21.50
2022-10-08T19:48:52.099Z,19.30
2022-10-08T19:51:24.853Z,21.10
2022-10-08T19:53:57.251Z,23.00
2022-10-08T19:56:30.335Z,23.70
2022-10-08T19:59:02.484Z,22.40
2022-10-08T20:01:37.616Z,23.80
2022-10-08T20:04:10.859Z,23.20
2022-10-08T20:06:44.010Z,24.60
2022-10-08T20:09:16.688Z,25.80
2022-10-08T20:11:48.905Z,25.00
2022-10-08T20:14:20.980Z,26.30
2022-10-08T20:16:53.173Z,29.20
2022-10-08T20:19:25.730Z,29.20
2022-10-08T20:21:58.041Z,27.80
2022-10-08T20:24:30.157Z,26.30
2022-10-08T20:27:02.273Z,29.20
2022-10-08T20:29:34.585Z,32.40
2022-10-08T20:32:06.701Z,33.00
2022-10-08T20:34:38.987Z,34.20
2022-10-08T20:37:11.120Z,33.80
2022-10-08T20:39:43.196Z,35.00
2022-10-08T20:42:15.245Z,32.60
2022-10-08T20:44:47.312Z,33.50
2022-10-08T20:47:19.496Z,32.80
2022-10-08T20:49:51.595Z,32.80
2022-10-08T20:52:23.828Z,31.90
2022-10-08T20:54:56.019Z,30.50
2022-10-08T20:57:28.129Z,32.10
2022-10-08T21:00:00.255Z,33.10
2022-10-08T21:02:32.924Z,32.80
2022-10-08T21:05:05.291Z,32.20
2022-10-08T21:07:37.422Z,32.10
2022-10-08T21:10:11.484Z,32.00
2022-10-08T21:12:43.717Z,33.10
2022-10-08T21:15:15.906Z,31.50
2022-10-08T21:17:47.983Z,33.20
2022-10-08T21:20:20.150Z,30.90
2022-10-08T21:22:52.380Z,32.10
2022-10-08T21:25:25.289Z,31.30
2022-10-08T21:30:27.843Z,29.90
2022-10-08T21:32:59.965Z,32.70
2022-10-08T21:35:32.093Z,32.00
2022-10-08T21:38:04.160Z,30.10
2022-10-08T21:40:36.283Z,30.20
2022-10-08T21:43:08.353Z,31.00
2022-10-08T21:45:40.531Z,30.20
2022-10-08T21:48:12.617Z,29.10
2022-10-08T21:50:44.739Z,29.20
2022-10-08T21:53:16.774Z,29.90
2022-10-08T21:55:56.666Z,29.80
2022-10-08T21:58:30.077Z,29.00
2022-10-08T22:01:02.295Z,29.40
2022-10-08T22:03:34.392Z,29.00
2022-10-08T22:06:07.004Z,29.40
2022-10-08T22:08:39.095Z,29.20
2022-10-08T22:11:11.276Z,27.90
2022-10-08T22:13:43.410Z,27.70
2022-10-08T22:16:16.581Z,26.60
2022-10-08T22:18:48.961Z,27.20
2022-10-08T22:21:22.540Z,28.60
2022-10-08T22:23:55.447Z,27.20
2022-10-08T22:26:31.208Z,26.10
2022-10-08T22:29:03.652Z,26.50
2022-10-08T22:34:06.974Z,24.30
2022-10-08T22:36:41.604Z,24.20
2022-10-08T22:39:13.957Z,25.20
2022-10-08T22:41:46.551Z,22.80
2022-10-08T22:44:18.673Z,25.30
2022-10-08T22:46:50.764Z,24.30
2022-10-08T22:49:22.950Z,23.20
2022-10-08T22:51:55.054Z,22.30
2022-10-08T22:54:27.135Z,24.40
2022-10-08T22:56:59.240Z,22.70
2022-10-08T22:59:31.818Z,24.90
2022-10-08T23:02:04.192Z,23.10
2022-10-08T23:04:36.320Z,23.00
2022-10-08T23:07:08.423Z,22.60
2022-10-08T23:09:40.512Z,22.20
2022-10-08T23:12:12.716Z,20.90
2022-10-08T23:14:44.780Z,21.30
2022-10-08T23:17:17.812Z,22.40
2022-10-08T23:19:49.815Z,22.10
2022-10-08T23:22:22.037Z,21.40
2022-10-08T23:24:54.099Z,21.50
2022-10-08T23:27:26.171Z,22.70
2022-10-08T23:29:58.263Z,22.70
2022-10-08T23:32:30.593Z,22.70
2022-10-08T23:35:02.650Z,21.40
2022-10-08T23:37:34.883Z,22.00
2022-10-08T23:40:07.887Z,22.70
2022-10-08T23:42:39.994Z,21.50
2022-10-08T23:45:13.477Z,19.80
2022-10-08T23:47:45.560Z,20.60
2022-10-08T23:50:17.931Z,22.20
2022-10-08T23:52:50.290Z,24.40
2022-10-08T23:55:22.922Z,24.90
2022-10-08T23:57:55.076Z,24.50
